createdAt,value
2018-12-19T00:00:40.856Z,24.61
2018-12-19T00:03:09.442Z,24.73
2018-12-19T00:05:38.035Z,24.94
2018-12-19T00:08:06.788Z,24.71
2018-12-19T00:10:35.406Z,24.58
2018-12-19T00:13:04.122Z,25.08
2018-12-19T00:15:32.840Z,25.01
2018-12-19T00:18:01.513Z,24.62
2018-12-19T00:20:30.156Z,24.48
2018-12-19T00:22:58.761Z,25.02
2018-12-19T00:25:27.383Z,25.07
2018-12-19T00:27:56.138Z,25.04
2018-12-19T00:30:24.714Z,25.00
2018-12-19T00:32:53.451Z,24.94
2018-12-19T00:35:22.219Z,24.99
2018-12-19T00:37:50.867Z,24.32
2018-12-19T00:40:19.567Z,24.73
2018-12-19T00:42:48.197Z,24.62
2018-12-19T00:45:16.781Z,24.39
2018-12-19T00:47:45.374Z,24.91
2018-12-19T00:50:14.112Z,24.51
2018-12-19T00:52:42.760Z,24.31
2018-12-19T00:55:11.330Z,24.33
2018-12-19T00:57:39.972Z,24.24
2018-12-19T01:00:09.605Z,24.25
2018-12-19T01:02:38.332Z,24.46
2018-12-19T01:05:07.128Z,24.59
2018-12-19T01:07:35.745Z,24.28
2018-12-19T01:10:05.137Z,24.74
2018-12-19T01:12:33.728Z,24.21
2018-12-19T01:15:03.234Z,24.21
2018-12-19T01:17:31.790Z,24.17
2018-12-19T01:20:00.497Z,24.62
2018-12-19T01:22:29.126Z,24.72
2018-12-19T01:24:57.811Z,24.47
2018-12-19T01:27:26.537Z,24.66
2018-12-19T01:29:55.173Z,24.56
2018-12-19T01:32:23.802Z,24.56
2018-12-19T01:34:52.438Z,24.51
2018-12-19T01:37:21.071Z,24.19
2018-12-19T01:39:52.211Z,24.76
2018-12-19T01:42:20.852Z,24.74
2018-12-19T01:44:49.509Z,24.42
2018-12-19T01:47:18.092Z,24.37
2018-12-19T01:49:46.803Z,24.71
2018-12-19T01:52:15.420Z,24.17
2018-12-19T01:54:44.004Z,24.64
2018-12-19T01:57:12.854Z,24.72
2018-12-19T01:59:41.451Z,24.61
2018-12-19T02:02:10.108Z,24.16
2018-12-19T02:04:38.716Z,24.50
2018-12-19T02:07:07.381Z,24.18
2018-12-19T02:09:35.963Z,24.04
2018-12-19T02:12:04.584Z,24.06
2018-12-19T02:14:33.153Z,24.53
2018-12-19T02:17:01.755Z,24.50
2018-12-19T02:19:30.646Z,24.58
2018-12-19T02:21:59.299Z,24.62
2018-12-19T02:24:27.851Z,23.97
2018-12-19T02:26:56.418Z,24.31
2018-12-19T02:29:25.060Z,24.16
2018-12-19T02:31:53.812Z,24.27
2018-12-19T02:34:22.613Z,24.39
2018-12-19T02:36:51.236Z,23.98
2018-12-19T02:39:19.818Z,24.01
2018-12-19T02:41:48.405Z,24.41
2018-12-19T02:44:16.988Z,24.47
2018-12-19T02:46:45.630Z,24.02
2018-12-19T02:49:14.234Z,24.34
2018-12-19T02:51:42.835Z,24.51
2018-12-19T02:54:11.450Z,24.13
2018-12-19T02:56:40.050Z,24.27
2018-12-19T02:59:08.635Z,24.41
2018-12-19T03:01:37.209Z,23.88
2018-12-19T03:04:05.901Z,24.51
2018-12-19T03:06:34.656Z,24.21
2018-12-19T03:09:04.013Z,23.95
2018-12-19T03:11:32.623Z,24.55
2018-12-19T03:14:01.407Z,24.47
2018-12-19T03:16:30.232Z,24.06
2018-12-19T03:18:58.828Z,24.61
2018-12-19T03:21:27.421Z,24.61
2018-12-19T03:23:55.989Z,24.39
2018-12-19T03:26:24.697Z,24.47
2018-12-19T03:28:53.255Z,24.50
2018-12-19T03:31:21.871Z,24.00
2018-12-19T03:33:50.531Z,23.93
2018-12-19T03:36:19.121Z,24.51
2018-12-19T03:38:47.691Z,23.93
2018-12-19T03:41:16.282Z,24.01
2018-12-19T03:43:44.870Z,24.60
2018-12-19T03:46:13.478Z,24.59
2018-12-19T03:48:47.291Z,24.58
2018-12-19T03:51:16.117Z,24.45
2018-12-19T03:53:44.824Z,23.88
2018-12-19T03:56:13.563Z,24.54
2018-12-19T03:58:42.783Z,24.26
2018-12-19T04:01:11.440Z,24.54
2018-12-19T04:03:40.075Z,24.54
2018-12-19T04:06:08.669Z,23.95
2018-12-19T04:08:37.266Z,24.44
2018-12-19T04:11:05.863Z,23.96
2018-12-19T04:13:34.472Z,24.58
2018-12-19T04:16:03.193Z,24.51
2018-12-19T04:18:31.899Z,24.03
2018-12-19T04:21:00.582Z,24.09
2018-12-19T04:23:29.174Z,24.57
2018-12-19T04:25:57.830Z,24.63
2018-12-19T04:28:26.445Z,24.23
2018-12-19T04:30:55.014Z,23.92
2018-12-19T04:33:23.633Z,23.96
2018-12-19T04:35:52.598Z,24.34
2018-12-19T04:38:21.413Z,24.26
2018-12-19T04:40:50.032Z,23.87
2018-12-19T04:43:18.656Z,24.27
2018-12-19T04:45:47.335Z,24.28
2018-12-19T04:48:15.954Z,23.94
2018-12-19T04:50:44.578Z,24.47
2018-12-19T04:53:14.624Z,24.27
2018-12-19T04:55:43.398Z,24.37
2018-12-19T04:58:12.036Z,24.15
2018-12-19T05:00:40.723Z,24.10
2018-12-19T05:03:09.271Z,24.41
2018-12-19T05:05:37.878Z,24.21
2018-12-19T05:08:06.471Z,24.17
2018-12-19T05:10:35.128Z,24.55
2018-12-19T05:13:03.930Z,24.04
2018-12-19T05:15:32.502Z,24.40
2018-12-19T05:18:01.140Z,23.87
2018-12-19T05:20:29.735Z,23.89
2018-12-19T05:22:58.399Z,24.49
2018-12-19T05:25:27.489Z,23.86
2018-12-19T05:27:56.176Z,24.52
2018-12-19T05:30:24.924Z,23.86
2018-12-19T05:32:53.503Z,24.13
2018-12-19T05:35:22.091Z,24.07
2018-12-19T05:37:50.676Z,24.34
2018-12-19T05:40:19.284Z,23.94
2018-12-19T05:42:47.886Z,24.37
2018-12-19T05:45:16.475Z,24.50
2018-12-19T05:47:45.053Z,24.41
2018-12-19T05:50:14.900Z,24.48
2018-12-19T05:52:43.708Z,23.97
2018-12-19T05:55:12.451Z,24.44
2018-12-19T05:57:41.228Z,23.89
2018-12-19T06:00:10.115Z,23.89
2018-12-19T06:02:38.700Z,24.48
2018-12-19T06:05:07.342Z,24.12
2018-12-19T06:07:35.952Z,23.90
2018-12-19T06:10:05.379Z,23.98
2018-12-19T06:12:33.968Z,24.51
2018-12-19T06:15:03.804Z,23.94
2018-12-19T06:17:32.459Z,24.42
2018-12-19T06:20:01.232Z,24.58
2018-12-19T06:22:29.943Z,24.47
2018-12-19T06:24:58.546Z,24.65
2018-12-19T06:27:27.160Z,24.58
2018-12-19T06:29:56.455Z,24.30
2018-12-19T06:32:25.099Z,24.04
2018-12-19T06:34:53.956Z,24.53
2018-12-19T06:37:22.584Z,24.14
2018-12-19T06:39:51.161Z,24.13
2018-12-19T06:42:19.950Z,24.61
2018-12-19T06:44:48.594Z,24.20
2018-12-19T06:47:17.182Z,24.16
2018-12-19T06:49:45.803Z,24.14
2018-12-19T06:52:14.477Z,24.20
2018-12-19T06:54:43.106Z,24.15
2018-12-19T06:57:11.751Z,24.39
2018-12-19T06:59:40.656Z,24.17
2018-12-19T07:02:09.234Z,24.71
2018-12-19T07:04:38.454Z,24.69
2018-12-19T07:07:07.036Z,24.66
2018-12-19T07:09:35.665Z,24.74
2018-12-19T07:12:04.367Z,24.80
2018-12-19T07:14:32.955Z,24.31
2018-12-19T07:17:01.648Z,24.44
2018-12-19T07:19:30.319Z,24.21
2018-12-19T07:21:58.908Z,24.18
2018-12-19T07:24:27.562Z,24.82
2018-12-19T07:26:56.136Z,24.71
2018-12-19T07:29:24.752Z,24.63
2018-12-19T07:31:53.339Z,24.64
2018-12-19T07:34:21.972Z,24.53
2018-12-19T07:36:50.584Z,24.68
2018-12-19T07:39:19.626Z,24.09
2018-12-19T07:41:48.314Z,24.70
2018-12-19T07:44:17.020Z,24.21
2018-12-19T07:46:45.624Z,24.16
2018-12-19T07:49:14.224Z,24.14
2018-12-19T07:51:42.831Z,24.92
2018-12-19T07:54:11.444Z,25.16
2018-12-19T07:56:40.093Z,25.10
2018-12-19T07:59:08.733Z,25.79
2018-12-19T08:01:37.397Z,26.30
2018-12-19T08:04:06.105Z,26.32
2018-12-19T08:06:34.916Z,26.27
2018-12-19T08:09:05.642Z,25.96
2018-12-19T08:11:34.236Z,26.00
2018-12-19T08:14:02.863Z,26.64
2018-12-19T08:16:31.454Z,26.04
2018-12-19T08:19:00.120Z,26.05
2018-12-19T08:21:28.690Z,26.60
2018-12-19T08:23:57.300Z,26.48
2018-12-19T08:26:25.986Z,26.33
2018-12-19T08:28:54.761Z,27.18
2018-12-19T08:31:23.514Z,27.37
2018-12-19T08:33:52.190Z,27.85
2018-12-19T08:36:21.224Z,27.67
2018-12-19T08:38:49.823Z,27.97
2018-12-19T08:41:18.454Z,28.33
2018-12-19T08:43:47.088Z,27.90
2018-12-19T08:46:15.723Z,27.98
2018-12-19T08:48:44.534Z,28.17
2018-12-19T08:51:13.229Z,27.68
2018-12-19T08:53:41.911Z,28.20
2018-12-19T08:56:10.547Z,27.94
2018-12-19T08:58:39.262Z,27.54
2018-12-19T09:01:07.888Z,28.05
2018-12-19T09:03:36.520Z,27.70
2018-12-19T09:06:05.126Z,27.23
2018-12-19T09:08:33.703Z,27.20
2018-12-19T09:11:05.692Z,27.13
2018-12-19T09:13:32.999Z,27.39
2018-12-19T09:16:01.878Z,27.07
2018-12-19T09:18:30.584Z,27.48
2018-12-19T09:20:59.214Z,27.43
2018-12-19T09:23:27.826Z,27.34
2018-12-19T09:25:56.407Z,26.94
2018-12-19T09:28:24.991Z,26.74
2018-12-19T09:30:53.596Z,26.98
2018-12-19T09:33:27.400Z,26.66
2018-12-19T09:35:52.784Z,26.67
2018-12-19T09:38:21.399Z,26.56
2018-12-19T09:40:50.080Z,27.00
2018-12-19T09:43:18.795Z,26.41
2018-12-19T09:45:47.443Z,26.83
2018-12-19T09:48:16.005Z,26.33
2018-12-19T09:50:44.628Z,26.36
2018-12-19T09:53:13.680Z,26.87
2018-12-19T09:55:42.288Z,26.74
2018-12-19T09:58:11.740Z,26.12
2018-12-19T10:00:40.375Z,26.52
2018-12-19T10:03:08.954Z,26.34
2018-12-19T10:05:37.559Z,26.56
2018-12-19T10:08:06.187Z,26.52
2018-12-19T10:10:34.846Z,26.06
2018-12-19T10:13:03.461Z,26.00
2018-12-19T10:15:32.130Z,26.02
2018-12-19T10:18:00.773Z,26.29
2018-12-19T10:20:29.370Z,25.85
2018-12-19T10:22:57.976Z,26.29
2018-12-19T10:25:26.625Z,25.74
2018-12-19T10:27:55.206Z,26.32
2018-12-19T10:30:23.855Z,26.30
2018-12-19T10:32:55.745Z,26.25
2018-12-19T10:35:26.055Z,25.66
2018-12-19T10:37:54.671Z,26.07
2018-12-19T10:40:23.364Z,25.60
2018-12-19T10:42:51.971Z,25.38
2018-12-19T10:45:20.604Z,26.12
2018-12-19T10:47:50.192Z,25.59
2018-12-19T10:50:18.785Z,25.47
2018-12-19T10:52:47.364Z,25.96
2018-12-19T10:55:16.075Z,25.39
2018-12-19T10:57:44.725Z,26.04
2018-12-19T11:00:19.208Z,25.49
2018-12-19T11:02:47.857Z,25.52
2018-12-19T11:05:16.450Z,25.78
2018-12-19T11:07:45.222Z,25.96
2018-12-19T11:10:13.904Z,25.34
2018-12-19T11:12:42.558Z,25.26
2018-12-19T11:15:11.312Z,25.90
2018-12-19T11:17:39.987Z,25.26
2018-12-19T11:20:10.485Z,25.21
2018-12-19T11:22:39.159Z,25.18
2018-12-19T11:25:08.110Z,25.78
2018-12-19T11:27:36.785Z,25.82
2018-12-19T11:30:07.528Z,25.67
2018-12-19T11:32:36.117Z,25.08
2018-12-19T11:35:05.626Z,25.12
2018-12-19T11:37:34.294Z,25.17
2018-12-19T11:40:03.131Z,25.46
2018-12-19T11:42:31.952Z,25.52
2018-12-19T11:45:00.612Z,25.67
2018-12-19T11:47:29.403Z,25.07
2018-12-19T11:49:58.005Z,24.96
2018-12-19T11:52:26.623Z,25.08
2018-12-19T11:54:55.272Z,25.16
2018-12-19T11:57:24.120Z,25.56
2018-12-19T11:59:52.732Z,25.01
2018-12-19T12:02:21.447Z,24.93
2018-12-19T12:04:50.055Z,25.08
2018-12-19T12:07:18.861Z,25.61
2018-12-19T12:09:47.481Z,25.02
2018-12-19T12:12:16.129Z,25.07
2018-12-19T12:14:44.858Z,25.45
2018-12-19T12:17:13.943Z,25.31
2018-12-19T12:19:42.657Z,24.93
2018-12-19T12:22:11.332Z,25.40
2018-12-19T12:24:40.060Z,24.86
2018-12-19T12:27:08.758Z,24.94
2018-12-19T12:29:37.433Z,24.81
2018-12-19T12:32:06.151Z,25.35
2018-12-19T12:34:34.882Z,25.46
2018-12-19T12:37:03.619Z,25.34
2018-12-19T12:39:32.227Z,25.32
2018-12-19T12:42:00.960Z,25.32
2018-12-19T12:44:30.017Z,24.85
2018-12-19T12:46:58.678Z,24.86
2018-12-19T12:49:27.355Z,24.79
2018-12-19T12:51:55.991Z,25.16
2018-12-19T12:54:24.666Z,25.10
2018-12-19T12:56:53.299Z,25.36
2018-12-19T12:59:21.992Z,24.90
2018-12-19T13:01:50.774Z,24.86
2018-12-19T13:04:19.371Z,25.36
2018-12-19T13:06:47.931Z,24.76
2018-12-19T13:09:16.639Z,25.41
2018-12-19T13:11:45.304Z,25.34
2018-12-19T13:14:13.956Z,24.79
2018-12-19T13:16:42.606Z,24.75
2018-12-19T13:19:11.204Z,24.98
2018-12-19T13:21:39.850Z,25.05
2018-12-19T13:24:08.543Z,24.81
2018-12-19T13:26:37.204Z,24.83
2018-12-19T13:29:06.022Z,25.34
2018-12-19T13:31:34.698Z,24.79
2018-12-19T13:34:03.352Z,24.84
2018-12-19T13:36:32.167Z,25.18
2018-12-19T13:39:00.852Z,24.71
2018-12-19T13:41:29.482Z,24.83
2018-12-19T13:43:58.116Z,25.18
2018-12-19T13:46:26.777Z,24.73
2018-12-19T13:48:55.413Z,25.19
2018-12-19T13:51:24.134Z,24.69
2018-12-19T13:53:52.788Z,24.94
2018-12-19T13:56:21.453Z,24.60
2018-12-19T13:58:50.104Z,24.66
2018-12-19T14:01:18.685Z,25.28
2018-12-19T14:03:47.329Z,25.10
2018-12-19T14:06:15.942Z,25.15
2018-12-19T14:08:44.559Z,24.94
2018-12-19T14:11:13.149Z,24.63
2018-12-19T14:13:41.782Z,24.61
2018-12-19T14:16:10.414Z,24.66
2018-12-19T14:18:39.069Z,24.65
2018-12-19T14:21:07.741Z,24.69
2018-12-19T14:23:36.457Z,24.99
2018-12-19T14:26:05.133Z,25.03
2018-12-19T14:28:33.796Z,24.58
2018-12-19T14:31:02.443Z,24.63
2018-12-19T14:33:31.142Z,25.07
2018-12-19T14:36:00.453Z,25.12
2018-12-19T14:38:29.138Z,24.46
2018-12-19T14:40:57.757Z,24.96
2018-12-19T14:43:26.343Z,24.40
2018-12-19T14:45:57.123Z,24.41
2018-12-19T14:48:25.756Z,24.40
2018-12-19T14:50:54.650Z,24.89
2018-12-19T14:53:23.336Z,24.42
2018-12-19T14:55:52.140Z,24.92
2018-12-19T14:58:20.750Z,24.45
2018-12-19T15:00:49.372Z,24.46
2018-12-19T15:03:17.992Z,24.46
2018-12-19T15:05:46.622Z,24.80
2018-12-19T15:08:15.272Z,24.90
2018-12-19T15:10:44.075Z,24.51
2018-12-19T15:13:12.992Z,24.79
2018-12-19T15:15:43.733Z,24.33
2018-12-19T15:18:12.376Z,24.33
2018-12-19T15:20:41.280Z,24.88
2018-12-19T15:23:09.903Z,24.22
2018-12-19T15:25:38.613Z,24.91
2018-12-19T15:28:07.276Z,24.51
2018-12-19T15:30:35.925Z,24.86
2018-12-19T15:33:04.994Z,24.35
2018-12-19T15:35:33.620Z,24.92
2018-12-19T15:38:02.297Z,24.93
2018-12-19T15:40:31.008Z,24.82
2018-12-19T15:42:59.670Z,24.96
2018-12-19T15:45:28.329Z,24.70
2018-12-19T15:47:57.006Z,24.93
2018-12-19T15:50:25.725Z,24.44
2018-12-19T15:52:54.379Z,24.66
2018-12-19T15:55:23.033Z,24.39
2018-12-19T15:57:51.717Z,25.00
2018-12-19T16:00:20.349Z,24.40
2018-12-19T16:02:49.005Z,24.83
2018-12-19T16:05:17.711Z,24.98
2018-12-19T16:07:46.410Z,24.92
2018-12-19T16:10:15.719Z,24.77
2018-12-19T16:12:44.340Z,24.49
2018-12-19T16:15:13.135Z,24.65
2018-12-19T16:17:41.798Z,24.66
2018-12-19T16:20:10.462Z,24.41
2018-12-19T16:22:39.103Z,24.84
2018-12-19T16:25:07.802Z,24.31
2018-12-19T16:27:36.443Z,24.36
2018-12-19T16:30:05.729Z,24.80
2018-12-19T16:32:34.358Z,24.33
2018-12-19T16:35:03.019Z,24.82
2018-12-19T16:37:31.748Z,24.33
2018-12-19T16:40:00.553Z,24.94
2018-12-19T16:42:29.234Z,24.94
2018-12-19T16:44:57.880Z,24.96
2018-12-19T16:47:26.557Z,24.37
2018-12-19T16:49:55.177Z,24.45
2018-12-19T16:52:23.827Z,24.47
2018-12-19T16:54:52.585Z,24.87
2018-12-19T16:57:21.247Z,24.25
2018-12-19T16:59:50.007Z,24.87
2018-12-19T17:02:18.673Z,24.36
2018-12-19T17:04:47.396Z,24.17
2018-12-19T17:07:16.059Z,24.76
2018-12-19T17:09:44.747Z,24.39
2018-12-19T17:12:13.613Z,24.80
2018-12-19T17:14:42.264Z,24.64
2018-12-19T17:17:11.750Z,24.67
2018-12-19T17:19:40.476Z,24.54
2018-12-19T17:22:09.139Z,24.84
2018-12-19T17:24:41.267Z,24.32
2018-12-19T17:27:09.900Z,24.30
2018-12-19T17:29:38.608Z,24.76
2018-12-19T17:32:07.862Z,24.86
2018-12-19T17:34:36.593Z,24.33
2018-12-19T17:37:05.408Z,24.33
2018-12-19T17:39:34.210Z,24.72
2018-12-19T17:42:03.022Z,24.42
2018-12-19T17:44:31.802Z,24.33
2018-12-19T17:47:31.306Z,24.67
2018-12-19T17:49:59.992Z,24.28
2018-12-19T17:52:28.678Z,24.84
2018-12-19T17:57:24.980Z,24.80
2018-12-19T17:59:53.679Z,24.74
2018-12-19T18:02:22.844Z,24.33
2018-12-19T18:04:51.600Z,24.82
2018-12-19T18:07:20.259Z,24.26
2018-12-19T18:12:16.654Z,24.55
2018-12-19T18:14:45.364Z,24.35
2018-12-19T18:17:14.067Z,24.26
2018-12-19T18:19:42.843Z,24.43
2018-12-19T18:22:11.531Z,24.31
2018-12-19T18:24:40.258Z,24.55
2018-12-19T18:27:08.985Z,25.00
2018-12-19T18:29:37.643Z,24.36
2018-12-19T18:32:06.475Z,24.97
2018-12-19T18:34:35.212Z,24.92
2018-12-19T18:37:04.055Z,24.95
2018-12-19T18:39:32.733Z,24.43
2018-12-19T18:42:01.468Z,24.88
2018-12-19T18:44:30.156Z,24.26
2018-12-19T18:46:58.844Z,24.61
2018-12-19T18:49:27.548Z,24.37
2018-12-19T18:51:56.494Z,24.31
2018-12-19T18:54:25.102Z,24.45
2018-12-19T18:56:54.047Z,24.81
2018-12-19T18:59:22.844Z,24.92
2018-12-19T19:01:51.615Z,24.63
2018-12-19T19:04:20.425Z,24.90
2018-12-19T19:06:49.205Z,24.39
2018-12-19T19:09:17.882Z,24.90
2018-12-19T19:11:46.672Z,24.36
2018-12-19T19:14:15.408Z,24.96
2018-12-19T19:16:44.250Z,24.91
2018-12-19T19:19:13.038Z,24.38
2018-12-19T19:21:42.722Z,24.39
2018-12-19T19:24:11.455Z,24.89
2018-12-19T19:26:40.301Z,24.36
2018-12-19T19:29:09.042Z,24.30
2018-12-19T19:31:37.843Z,24.91
2018-12-19T19:34:06.642Z,24.90
2018-12-19T19:36:35.393Z,25.01
2018-12-19T19:39:06.275Z,24.73
2018-12-19T19:41:35.175Z,24.83
2018-12-19T19:44:04.036Z,24.41
2018-12-19T19:46:33.183Z,24.57
2018-12-19T19:49:02.007Z,24.99
2018-12-19T19:51:30.803Z,25.05
2018-12-19T19:53:59.580Z,25.02
2018-12-19T19:56:28.354Z,25.04
2018-12-19T19:58:57.265Z,24.64
2018-12-19T20:01:25.895Z,24.97
2018-12-19T20:03:54.750Z,24.67
2018-12-19T20:06:23.444Z,25.02
2018-12-19T20:08:52.106Z,24.52
2018-12-19T20:11:20.959Z,24.55
2018-12-19T20:13:50.144Z,24.90
2018-12-19T20:16:18.892Z,24.73
2018-12-19T20:18:47.646Z,25.01
2018-12-19T20:21:16.327Z,24.61
2018-12-19T20:23:45.102Z,24.66
2018-12-19T20:26:13.783Z,24.79
2018-12-19T20:28:42.472Z,25.10
2018-12-19T20:31:11.225Z,24.68
2018-12-19T20:33:39.899Z,25.10
2018-12-19T20:36:08.599Z,24.42
2018-12-19T20:38:37.294Z,25.00
2018-12-19T20:41:05.972Z,24.99
2018-12-19T20:43:39.891Z,25.07
2018-12-19T20:46:05.777Z,24.99
2018-12-19T20:48:34.519Z,24.71
2018-12-19T20:51:03.265Z,24.43
2018-12-19T20:53:32.247Z,24.96
2018-12-19T20:56:03.812Z,24.90
2018-12-19T20:58:31.820Z,24.52
2018-12-19T21:01:00.520Z,24.92
2018-12-19T21:03:29.157Z,25.01
2018-12-19T21:05:57.819Z,24.41
2018-12-19T21:08:26.544Z,24.45
2018-12-19T21:10:55.198Z,24.39
2018-12-19T21:13:23.936Z,24.49
2018-12-19T21:15:52.698Z,24.77
2018-12-19T21:18:26.650Z,24.48
2018-12-19T21:20:55.267Z,24.94
2018-12-19T21:23:24.007Z,24.96
2018-12-19T21:25:52.699Z,24.40
2018-12-19T21:28:21.393Z,24.44
2018-12-19T21:30:50.081Z,24.38
2018-12-19T21:33:18.885Z,24.51
2018-12-19T21:35:47.665Z,24.94
2018-12-19T21:38:16.349Z,24.39
2018-12-19T21:43:12.856Z,24.97
2018-12-19T21:48:09.171Z,24.47
2018-12-19T21:50:37.837Z,25.04
2018-12-19T21:53:06.464Z,24.75
2018-12-19T21:55:35.152Z,24.95
2018-12-19T21:58:03.811Z,24.97
2018-12-19T22:00:37.638Z,24.76
2018-12-19T22:03:07.254Z,24.50
2018-12-19T22:08:04.858Z,24.66
2018-12-19T22:10:33.667Z,24.94
2018-12-19T22:15:29.994Z,24.85
2018-12-19T22:19:07.566Z,24.49
2018-12-19T22:21:36.215Z,25.01
2018-12-19T22:24:05.351Z,24.87
2018-12-19T22:26:34.103Z,24.59
2018-12-19T22:29:03.429Z,25.10
2018-12-19T22:31:32.167Z,24.99
2018-12-19T22:34:00.816Z,24.52
2018-12-19T22:36:29.526Z,24.25
2018-12-19T22:38:58.306Z,24.51
2018-12-19T22:41:27.559Z,25.37
2018-12-19T22:46:23.988Z,25.82
2018-12-19T22:48:52.679Z,26.01
2018-12-19T22:51:21.519Z,26.15
2018-12-19T22:53:50.288Z,25.72
2018-12-19T22:56:19.012Z,25.75
2018-12-19T22:58:47.825Z,26.40
2018-12-19T23:01:21.996Z,26.02
2018-12-19T23:03:55.856Z,26.32
2018-12-19T23:06:24.626Z,26.30
2018-12-19T23:08:53.404Z,26.11
2018-12-19T23:11:22.058Z,26.65
2018-12-19T23:13:50.831Z,26.55
2018-12-19T23:16:19.631Z,26.10
2018-12-19T23:18:48.292Z,26.02
2018-12-19T23:21:17.032Z,26.74
2018-12-19T23:23:45.875Z,26.82
2018-12-19T23:26:14.745Z,26.46
2018-12-19T23:28:43.564Z,26.19
2018-12-19T23:31:12.235Z,26.81
2018-12-19T23:33:40.855Z,26.83
2018-12-19T23:36:09.902Z,26.50
2018-12-19T23:38:38.797Z,26.84
2018-12-19T23:41:07.472Z,26.80
2018-12-19T23:43:36.204Z,26.17
2018-12-19T23:46:04.950Z,26.23
2018-12-19T23:48:33.676Z,26.71
2018-12-19T23:51:02.671Z,26.44
2018-12-19T23:53:31.480Z,26.19
2018-12-19T23:56:00.936Z,25.85
2018-12-19T23:58:29.862Z,25.82
